createdAt,value
2022-08-09T00:01:42.963Z,2.83
2022-08-09T00:04:34.206Z,2.67
2022-08-09T00:07:07.767Z,2.58
2022-08-09T00:09:38.855Z,2.65
2022-08-09T00:12:06.616Z,2.70
2022-08-09T00:14:37.853Z,2.90
2022-08-09T00:17:05.964Z,2.83
2022-08-09T00:19:34.049Z,2.60
2022-08-09T00:22:04.392Z,2.70
2022-08-09T00:24:32.421Z,2.63
2022-08-09T00:27:00.306Z,2.53
2022-08-09T00:30:16.565Z,3.00
2022-08-09T00:32:27.261Z,3.00
2022-08-09T00:34:56.437Z,3.13
2022-08-09T00:37:24.075Z,3.58
2022-08-09T00:40:14.128Z,3.28
2022-08-09T00:44:09.935Z,3.72
2022-08-09T00:45:25.975Z,3.50
2022-08-09T00:47:52.982Z,3.10
2022-08-09T00:50:23.670Z,3.67
2022-08-09T00:52:52.794Z,3.42
2022-08-09T00:56:03.658Z,3.90
2022-08-09T00:58:09.219Z,3.80
2022-08-09T01:00:43.867Z,3.60
2022-08-09T01:03:29.423Z,4.00
2022-08-09T01:06:17.533Z,3.65
2022-08-09T01:08:59.812Z,3.95
2022-08-09T01:11:53.265Z,3.95
2022-08-09T01:14:35.695Z,3.42
2022-08-09T01:17:10.993Z,3.50
2022-08-09T01:20:01.899Z,3.42
2022-08-09T01:22:37.834Z,3.72
2022-08-09T01:25:42.192Z,9.38
2022-08-09T01:28:16.785Z,8.05
2022-08-09T01:30:52.171Z,8.02
2022-08-09T01:33:24.492Z,7.43
2022-08-09T01:36:11.320Z,7.25
2022-08-09T01:38:46.633Z,7.80
2022-08-09T01:41:26.125Z,8.32
2022-08-09T01:43:57.663Z,7.50
2022-08-09T01:46:38.804Z,7.35
2022-08-09T01:49:12.896Z,7.43
2022-08-09T01:51:56.820Z,6.03
2022-08-09T01:54:30.253Z,5.68
2022-08-09T01:57:05.079Z,6.18
2022-08-09T01:59:40.870Z,4.57
2022-08-09T02:02:21.807Z,3.80
2022-08-09T02:04:50.815Z,3.60
2022-08-09T02:08:41.054Z,3.00
2022-08-09T02:10:13.720Z,2.70
2022-08-09T02:12:44.408Z,2.75
2022-08-09T02:15:16.643Z,1.98
2022-08-09T02:20:41.188Z,2.33
2022-08-09T02:23:19.380Z,2.40
2022-08-09T02:25:55.934Z,2.40
2022-08-09T02:28:34.485Z,2.47
2022-08-09T02:31:09.257Z,2.33
2022-08-09T02:34:07.212Z,2.28
2022-08-09T02:36:41.908Z,2.65
2022-08-09T02:39:33.302Z,2.50
2022-08-09T02:42:09.367Z,2.95
2022-08-09T02:44:40.061Z,2.60
2022-08-09T02:47:11.984Z,2.75
2022-08-09T02:49:43.892Z,2.50
2022-08-09T02:52:15.272Z,2.60
2022-08-09T02:54:54.083Z,2.80
2022-08-09T02:57:25.143Z,2.63
2022-08-09T03:00:21.407Z,2.17
2022-08-09T03:03:00.506Z,2.58
2022-08-09T03:05:34.377Z,2.70
2022-08-09T03:08:04.754Z,2.67
2022-08-09T03:10:35.520Z,3.08
2022-08-09T03:13:08.255Z,2.95
2022-08-09T03:15:40.390Z,3.40
2022-08-09T03:18:31.245Z,3.53
2022-08-09T03:20:59.723Z,3.38
2022-08-09T03:23:26.843Z,4.20
2022-08-09T03:25:59.408Z,4.05
2022-08-09T03:28:32.945Z,3.67
2022-08-09T03:31:04.440Z,3.95
2022-08-09T03:33:53.935Z,3.60
2022-08-09T03:36:27.270Z,3.53
2022-08-09T03:38:56.821Z,3.35
2022-08-09T03:41:30.072Z,3.08
2022-08-09T03:44:12.137Z,3.28
2022-08-09T03:46:39.406Z,2.90
2022-08-09T03:49:08.904Z,2.72
2022-08-09T03:51:58.213Z,2.50
2022-08-09T03:54:31.799Z,2.58
2022-08-09T03:57:17.907Z,2.53
2022-08-09T03:59:54.160Z,2.47
2022-08-09T04:02:30.355Z,2.92
2022-08-09T04:05:00.697Z,2.63
2022-08-09T04:07:33.769Z,2.53
2022-08-09T04:10:20.647Z,2.55
2022-08-09T04:12:50.867Z,2.30
2022-08-09T04:15:42.562Z,2.35
2022-08-09T04:18:08.744Z,2.15
2022-08-09T04:20:35.812Z,2.30
2022-08-09T04:23:03.550Z,3.50
2022-08-09T04:25:37.193Z,2.47
2022-08-09T04:28:04.621Z,2.30
2022-08-09T04:30:32.658Z,2.05
2022-08-09T04:33:01.175Z,3.80
2022-08-09T04:35:29.398Z,2.60
2022-08-09T04:38:03.549Z,2.00
2022-08-09T04:40:56.065Z,2.15
2022-08-09T04:43:25.349Z,2.30
2022-08-09T04:45:54.118Z,1.75
2022-08-09T04:48:23.933Z,1.70
2022-08-09T04:51:00.740Z,1.65
2022-08-09T04:53:28.677Z,1.85
2022-08-09T04:55:59.789Z,1.88
2022-08-09T04:58:31.849Z,2.05
2022-08-09T05:01:02.193Z,1.90
2022-08-09T05:03:43.099Z,2.20
2022-08-09T05:06:25.756Z,2.35
2022-08-09T05:09:00.679Z,2.13
2022-08-09T05:11:32.453Z,1.70
2022-08-09T05:14:06.213Z,2.08
2022-08-09T05:16:58.350Z,2.47
2022-08-09T05:19:26.110Z,2.20
2022-08-09T05:21:55.526Z,2.00
2022-08-09T05:24:24.878Z,2.17
2022-08-09T05:26:53.048Z,1.85
2022-08-09T05:29:21.945Z,1.83
2022-08-09T05:31:56.863Z,1.80
2022-08-09T05:34:31.679Z,2.25
2022-08-09T05:37:07.391Z,2.00
2022-08-09T05:39:43.239Z,2.63
2022-08-09T05:42:20.948Z,2.03
2022-08-09T05:44:51.976Z,2.00
2022-08-09T05:47:24.754Z,2.65
2022-08-09T05:50:25.456Z,2.17
2022-08-09T05:52:44.402Z,2.00
2022-08-09T05:55:21.100Z,2.20
2022-08-09T05:57:57.371Z,2.50
2022-08-09T06:00:32.748Z,2.13
2022-08-09T06:03:02.773Z,1.80
2022-08-09T06:05:57.272Z,2.00
2022-08-09T06:08:24.870Z,1.90
2022-08-09T06:10:56.148Z,1.95
2022-08-09T06:13:24.920Z,1.83
2022-08-09T06:15:52.978Z,1.92
2022-08-09T06:18:24.768Z,1.92
2022-08-09T06:20:58.132Z,1.98
2022-08-09T06:23:55.541Z,1.70
2022-08-09T06:26:21.113Z,1.70
2022-08-09T06:29:00.072Z,2.03
2022-08-09T06:31:40.500Z,1.95
2022-08-09T06:34:23.646Z,2.03
2022-08-09T06:36:57.259Z,2.10
2022-08-09T06:39:49.069Z,1.90
2022-08-09T06:42:24.508Z,2.00
2022-08-09T06:44:57.300Z,2.35
2022-08-09T06:47:24.482Z,2.20
2022-08-09T06:50:14.294Z,2.50
2022-08-09T06:52:47.081Z,2.03
2022-08-09T06:55:22.936Z,2.45
2022-08-09T06:58:01.377Z,2.83
2022-08-09T07:00:54.635Z,2.20
2022-08-09T07:03:27.825Z,1.98
2022-08-09T07:06:04.389Z,1.90
2022-08-09T07:11:03.568Z,1.90
2022-08-09T07:13:31.188Z,2.03
2022-08-09T07:16:41.867Z,2.40
2022-08-09T07:18:59.674Z,1.85
2022-08-09T07:21:26.685Z,1.65
2022-08-09T07:23:58.518Z,2.30
2022-08-09T07:26:26.344Z,1.90
2022-08-09T07:29:09.369Z,1.85
2022-08-09T07:31:45.438Z,1.90
2022-08-09T07:34:20.185Z,1.60
2022-08-09T07:36:52.881Z,2.00
2022-08-09T07:39:41.617Z,2.50
2022-08-09T07:42:08.696Z,1.73
2022-08-09T07:44:51.059Z,1.90
2022-08-09T07:47:20.869Z,1.98
2022-08-09T07:49:52.330Z,1.50
2022-08-09T07:52:33.287Z,1.73
2022-08-09T07:55:08.872Z,1.92
2022-08-09T07:57:47.069Z,1.93
2022-08-09T08:00:20.589Z,1.90
2022-08-09T08:03:04.343Z,1.70
2022-08-09T08:05:39.212Z,1.60
2022-08-09T08:09:00.309Z,1.80
2022-08-09T08:12:08.803Z,1.90
2022-08-09T08:13:57.311Z,1.50
2022-08-09T08:16:31.618Z,1.67
2022-08-09T08:19:02.962Z,2.13
2022-08-09T08:21:31.766Z,1.50
2022-08-09T08:24:01.125Z,1.73
2022-08-09T08:26:54.839Z,1.58
2022-08-09T08:29:20.171Z,1.50
2022-08-09T08:32:03.496Z,1.60
2022-08-09T08:34:34.497Z,1.77
2022-08-09T08:37:05.135Z,2.28
2022-08-09T08:39:38.173Z,1.73
2022-08-09T08:42:10.967Z,1.83
2022-08-09T08:44:39.679Z,1.52
2022-08-09T08:47:12.388Z,1.80
2022-08-09T08:49:48.520Z,1.50
2022-08-09T08:52:57.492Z,1.40
2022-08-09T08:55:10.682Z,1.40
2022-08-09T08:57:38.244Z,1.60
2022-08-09T09:00:17.252Z,1.95
2022-08-09T09:02:53.417Z,1.60
2022-08-09T09:05:57.713Z,1.77
2022-08-09T09:08:30.785Z,1.80
2022-08-09T09:11:05.656Z,2.20
2022-08-09T09:13:55.275Z,1.80
2022-08-09T09:16:35.551Z,1.50
2022-08-09T09:22:00.499Z,1.48
2022-08-09T09:24:47.505Z,2.33
2022-08-09T09:28:06.412Z,2.83
2022-08-09T09:30:39.798Z,1.40
2022-08-09T09:33:16.496Z,1.60
2022-08-09T09:36:02.863Z,1.40
2022-08-09T09:38:44.881Z,1.50
2022-08-09T09:41:32.602Z,1.48
2022-08-09T09:44:12.573Z,1.70
2022-08-09T09:46:50.449Z,1.30
2022-08-09T09:49:32.289Z,1.50
2022-08-09T09:52:16.469Z,1.38
2022-08-09T09:55:23.827Z,1.83
2022-08-09T09:58:17.217Z,2.53
2022-08-09T10:00:58.836Z,1.70
2022-08-09T10:03:44.271Z,2.03
2022-08-09T10:06:13.100Z,1.50
2022-08-09T10:08:42.385Z,1.70
2022-08-09T10:12:00.243Z,1.63
2022-08-09T10:14:31.051Z,1.80
2022-08-09T10:17:40.045Z,2.10
2022-08-09T10:20:00.135Z,1.90
2022-08-09T10:22:37.457Z,2.30
2022-08-09T10:25:12.007Z,2.42
2022-08-09T10:27:56.516Z,2.15
2022-08-09T10:34:05.236Z,2.20
2022-08-09T10:36:04.425Z,1.98
2022-08-09T10:38:55.417Z,2.25
2022-08-09T10:41:20.706Z,1.63
2022-08-09T10:44:01.026Z,2.10
2022-08-09T10:47:00.672Z,1.65
2022-08-09T10:49:51.761Z,1.80
2022-08-09T10:52:45.714Z,1.70
2022-08-09T10:55:22.813Z,1.63
2022-08-09T10:57:52.054Z,1.88
2022-08-09T11:00:29.294Z,1.60
2022-08-09T11:03:27.953Z,1.60
2022-08-09T11:06:18.803Z,1.30
2022-08-09T11:08:53.054Z,1.40
2022-08-09T11:11:21.904Z,1.60
2022-08-09T11:14:27.970Z,1.50
2022-08-09T11:16:59.821Z,1.50
2022-08-09T11:20:07.882Z,1.88
2022-08-09T11:22:41.973Z,2.08
2022-08-09T11:25:11.833Z,1.13
2022-08-09T11:28:02.985Z,1.52
2022-08-09T11:30:33.655Z,1.50
2022-08-09T11:33:19.754Z,1.88
2022-08-09T11:35:54.733Z,2.33
2022-08-09T11:38:34.132Z,1.60
2022-08-09T11:41:38.391Z,1.40
2022-08-09T11:44:08.378Z,1.48
2022-08-09T11:46:53.038Z,1.60
2022-08-09T11:50:56.869Z,1.45
2022-08-09T11:53:57.603Z,1.73
2022-08-09T11:56:02.388Z,1.52
2022-08-09T11:58:33.224Z,1.45
2022-08-09T12:01:08.858Z,1.58
2022-08-09T12:03:55.540Z,1.30
2022-08-09T12:06:32.015Z,1.70
2022-08-09T12:09:03.276Z,1.60
2022-08-09T12:11:37.861Z,1.40
2022-08-09T12:14:37.017Z,1.48
2022-08-09T12:17:34.115Z,1.92
2022-08-09T12:19:59.596Z,1.40
2022-08-09T12:22:29.100Z,1.50
2022-08-09T12:25:17.960Z,1.33
2022-08-09T12:29:11.902Z,1.85
2022-08-09T12:31:31.211Z,1.35
2022-08-09T12:34:10.576Z,1.73
2022-08-09T12:37:09.474Z,1.70
2022-08-09T12:39:42.773Z,1.70
2022-08-09T12:42:16.308Z,2.10
2022-08-09T12:44:46.392Z,1.70
2022-08-09T12:47:23.047Z,2.10
2022-08-09T12:50:09.328Z,1.73
2022-08-09T12:53:02.602Z,1.60
2022-08-09T12:56:14.198Z,1.90
2022-08-09T12:58:24.065Z,1.80
2022-08-09T13:00:51.681Z,1.73
2022-08-09T13:03:28.490Z,2.45
2022-08-09T13:06:33.889Z,1.87
2022-08-09T13:09:09.981Z,1.38
2022-08-09T13:11:49.360Z,1.80
2022-08-09T13:14:43.614Z,1.30
2022-08-09T13:17:16.082Z,1.70
2022-08-09T13:20:10.451Z,1.90
2022-08-09T13:23:01.296Z,1.90
2022-08-09T13:25:23.259Z,1.73
2022-08-09T13:27:55.833Z,1.70
2022-08-09T13:30:49.194Z,1.92
2022-08-09T13:33:22.528Z,1.73
2022-08-09T13:36:24.592Z,2.45
2022-08-09T13:38:56.595Z,1.80
2022-08-09T13:41:58.538Z,1.75
2022-08-09T13:44:16.428Z,1.80
2022-08-09T13:47:26.519Z,1.75
2022-08-09T13:49:39.602Z,1.60
2022-08-09T13:52:22.768Z,3.05
2022-08-09T13:55:00.552Z,2.20
2022-08-09T13:57:35.875Z,1.80
2022-08-09T14:00:28.670Z,1.70
2022-08-09T14:03:04.081Z,1.50
2022-08-09T14:05:59.123Z,1.60
2022-08-09T14:08:30.641Z,2.00
2022-08-09T14:10:59.649Z,2.05
2022-08-09T14:14:22.539Z,2.42
2022-08-09T14:16:18.363Z,1.98
2022-08-09T14:18:49.616Z,1.75
2022-08-09T14:21:23.427Z,1.63
2022-08-09T14:23:54.820Z,1.65
2022-08-09T14:26:34.002Z,1.90
2022-08-09T14:29:25.624Z,2.20
2022-08-09T14:31:55.073Z,2.03
2022-08-09T14:34:31.067Z,1.70
2022-08-09T14:37:01.682Z,1.80
2022-08-09T14:39:46.575Z,1.73
2022-08-09T14:42:30.301Z,2.00
2022-08-09T14:46:53.976Z,1.60
2022-08-09T14:48:00.260Z,1.85
2022-08-09T14:50:31.645Z,1.73
2022-08-09T14:53:12.990Z,1.70
2022-08-09T14:55:49.805Z,1.70
2022-08-09T14:58:18.554Z,1.60
2022-08-09T15:00:48.492Z,1.70
2022-08-09T15:03:20.120Z,1.58
2022-08-09T15:05:52.460Z,2.10
2022-08-09T15:08:25.596Z,1.80
2022-08-09T15:11:00.457Z,1.58
2022-08-09T15:13:29.913Z,1.50
2022-08-09T15:16:15.839Z,1.67
2022-08-09T15:18:43.088Z,1.70
2022-08-09T15:21:56.915Z,1.70
2022-08-09T15:24:06.064Z,2.13
2022-08-09T15:26:45.855Z,1.98
2022-08-09T15:30:48.302Z,1.42
2022-08-09T15:32:02.232Z,2.00
2022-08-09T15:34:34.427Z,1.75
2022-08-09T15:37:24.311Z,1.90
2022-08-09T15:40:11.453Z,1.80
2022-08-09T15:42:40.519Z,2.03
2022-08-09T15:45:11.535Z,2.00
2022-08-09T15:47:47.279Z,1.67
2022-08-09T15:50:28.883Z,1.90
2022-08-09T15:53:06.168Z,2.10
2022-08-09T15:55:34.508Z,1.75
2022-08-09T15:58:26.696Z,1.77
2022-08-09T16:00:56.531Z,2.05
2022-08-09T16:03:26.658Z,1.75
2022-08-09T16:06:05.894Z,1.80
2022-08-09T16:08:34.152Z,2.13
2022-08-09T16:11:02.596Z,2.00
2022-08-09T16:14:06.075Z,2.05
2022-08-09T16:16:20.397Z,1.92
2022-08-09T16:18:56.542Z,2.10
2022-08-09T16:21:25.910Z,2.08
2022-08-09T16:23:58.345Z,2.25
2022-08-09T16:26:34.106Z,1.80
2022-08-09T16:29:15.017Z,2.30
2022-08-09T16:32:19.527Z,2.17
2022-08-09T16:34:56.060Z,2.10
2022-08-09T16:37:20.406Z,2.30
2022-08-09T16:40:11.781Z,1.85
2022-08-09T16:42:45.265Z,1.95
2022-08-09T16:45:17.663Z,1.63
2022-08-09T16:48:38.781Z,1.90
2022-08-09T16:50:34.410Z,2.03
2022-08-09T16:53:02.840Z,2.20
2022-08-09T16:55:59.924Z,2.08
2022-08-09T16:58:21.135Z,2.10
2022-08-09T17:00:49.252Z,2.40
2022-08-09T17:03:21.837Z,2.42
2022-08-09T17:06:07.037Z,2.25
2022-08-09T17:09:01.576Z,1.85
2022-08-09T17:11:37.683Z,2.20
2022-08-09T17:14:26.080Z,2.67
2022-08-09T17:17:01.079Z,2.75
2022-08-09T17:20:04.932Z,2.90
2022-08-09T17:22:28.555Z,2.20
2022-08-09T17:25:10.031Z,2.20
2022-08-09T17:27:49.573Z,2.30
2022-08-09T17:30:26.486Z,2.50
2022-08-09T17:33:00.607Z,2.47
2022-08-09T17:35:33.468Z,2.55
2022-08-09T17:38:10.213Z,2.28
2022-08-09T17:40:47.830Z,2.40
2022-08-09T17:43:33.539Z,2.47
2022-08-09T17:46:07.102Z,2.60
2022-08-09T17:48:38.887Z,2.47
2022-08-09T17:51:18.412Z,2.50
2022-08-09T17:53:54.694Z,2.72
2022-08-09T17:56:35.209Z,3.10
2022-08-09T17:59:09.625Z,2.97
2022-08-09T18:01:58.034Z,2.92
2022-08-09T18:04:27.365Z,3.10
2022-08-09T18:06:55.775Z,3.10
2022-08-09T18:09:41.002Z,3.30
2022-08-09T18:12:17.080Z,3.30
2022-08-09T18:14:53.692Z,2.88
2022-08-09T18:18:02.509Z,2.78
2022-08-09T18:20:55.491Z,3.05
2022-08-09T18:23:05.068Z,3.10
2022-08-09T18:25:50.736Z,3.22
2022-08-09T18:30:41.354Z,3.58
2022-08-09T18:31:09.096Z,3.60
2022-08-09T18:33:36.380Z,3.03
2022-08-09T18:36:04.337Z,3.42
2022-08-09T18:38:31.487Z,3.50
2022-08-09T18:40:58.648Z,3.95
2022-08-09T18:43:25.735Z,4.00
2022-08-09T18:46:47.213Z,3.58
2022-08-09T18:48:42.557Z,4.00
2022-08-09T18:51:10.164Z,3.28
2022-08-09T18:53:55.953Z,3.70
2022-08-09T18:56:27.955Z,4.25
2022-08-09T18:58:56.944Z,3.85
2022-08-09T19:01:24.864Z,4.15
2022-08-09T19:04:00.885Z,4.50
2022-08-09T19:06:33.310Z,4.07
2022-08-09T19:09:02.602Z,4.30
2022-08-09T19:11:37.442Z,4.07
2022-08-09T19:14:06.950Z,4.40
2022-08-09T19:16:36.453Z,4.18
2022-08-09T19:19:25.413Z,4.25
2022-08-09T19:22:05.039Z,4.20
2022-08-09T19:24:38.367Z,4.10
2022-08-09T19:27:08.011Z,4.07
2022-08-09T19:29:59.815Z,5.25
2022-08-09T19:32:26.603Z,4.63
2022-08-09T19:34:57.626Z,4.38
2022-08-09T19:37:25.165Z,4.45
2022-08-09T19:40:03.810Z,4.40
2022-08-09T19:42:32.636Z,4.88
2022-08-09T19:44:59.796Z,4.78
2022-08-09T19:47:26.854Z,4.30
2022-08-09T19:50:08.109Z,5.00
2022-08-09T19:52:49.312Z,4.25
2022-08-09T19:55:30.430Z,4.43
2022-08-09T19:57:58.096Z,4.75
2022-08-09T20:00:25.185Z,4.35
2022-08-09T20:04:09.846Z,4.78
2022-08-09T20:05:46.371Z,5.35
2022-08-09T20:08:24.748Z,4.70
2022-08-09T20:11:04.234Z,4.80
2022-08-09T20:13:36.955Z,5.20
2022-08-09T20:16:34.152Z,4.80
2022-08-09T20:19:42.419Z,4.85
2022-08-09T20:21:56.371Z,4.70
2022-08-09T20:24:29.643Z,4.53
2022-08-09T20:27:08.367Z,5.43
2022-08-09T20:29:38.338Z,4.95
2022-08-09T20:32:28.813Z,4.82
2022-08-09T20:34:55.304Z,4.97
2022-08-09T20:37:22.835Z,5.80
2022-08-09T20:40:16.793Z,5.30
2022-08-09T20:42:37.846Z,6.28
2022-08-09T20:46:00.358Z,5.35
2022-08-09T20:47:55.013Z,6.10
2022-08-09T20:50:47.991Z,6.30
2022-08-09T20:53:35.020Z,5.80
2022-08-09T20:56:02.664Z,7.07
2022-08-09T20:58:32.283Z,6.50
2022-08-09T21:01:33.054Z,6.78
2022-08-09T21:04:14.076Z,7.05
2022-08-09T21:06:41.513Z,7.40
2022-08-09T21:09:14.240Z,6.47
2022-08-09T21:14:31.052Z,6.93
2022-08-09T21:17:00.191Z,7.10
2022-08-09T21:20:17.183Z,6.80
2022-08-09T21:22:35.957Z,7.35
2022-08-09T21:25:21.195Z,7.20
2022-08-09T21:27:52.015Z,7.10
2022-08-09T21:30:27.920Z,8.23
2022-08-09T21:32:54.988Z,8.10
2022-08-09T21:35:24.240Z,7.80
2022-08-09T21:37:59.934Z,7.60
2022-08-09T21:40:30.307Z,7.40
2022-08-09T21:42:59.823Z,7.75
2022-08-09T21:45:28.272Z,7.65
2022-08-09T21:47:55.584Z,7.65
2022-08-09T21:50:36.112Z,7.53
2022-08-09T21:53:15.660Z,6.88
2022-08-09T21:55:51.209Z,6.88
2022-08-09T21:58:18.243Z,7.00
2022-08-09T22:00:48.749Z,6.50
2022-08-09T22:03:25.772Z,6.60
2022-08-09T22:05:54.251Z,6.70
2022-08-09T22:08:24.606Z,6.35
2022-08-09T22:11:50.228Z,6.25
2022-08-09T22:13:42.313Z,5.88
2022-08-09T22:16:11.627Z,5.88
2022-08-09T22:18:53.594Z,5.95
2022-08-09T22:21:25.327Z,5.88
2022-08-09T22:24:17.306Z,5.43
2022-08-09T22:26:51.553Z,5.25
2022-08-09T22:29:19.635Z,5.43
2022-08-09T22:31:57.443Z,5.82
2022-08-09T22:34:28.198Z,5.40
2022-08-09T22:36:57.072Z,5.35
2022-08-09T22:39:58.004Z,5.70
2022-08-09T22:42:21.276Z,5.28
2022-08-09T22:45:00.405Z,5.22
2022-08-09T22:48:30.150Z,5.65
2022-08-09T22:50:26.574Z,5.63
2022-08-09T22:52:57.898Z,5.30
2022-08-09T22:55:39.756Z,4.97
2022-08-09T22:58:30.906Z,4.75
2022-08-09T23:01:02.841Z,4.97
2022-08-09T23:04:03.993Z,5.22
2022-08-09T23:06:30.068Z,5.10
2022-08-09T23:09:06.982Z,5.25
2022-08-09T23:11:34.181Z,5.28
2022-08-09T23:14:03.248Z,5.15
2022-08-09T23:16:31.448Z,4.95
2022-08-09T23:18:58.459Z,5.20
2022-08-09T23:21:28.818Z,5.43
2022-08-09T23:24:05.347Z,4.65
2022-08-09T23:26:37.152Z,5.03
2022-08-09T23:29:08.487Z,5.45
2022-08-09T23:31:35.653Z,6.00
2022-08-09T23:34:03.918Z,5.45
2022-08-09T23:36:32.113Z,5.68
2022-08-09T23:38:59.485Z,5.32
2022-08-09T23:41:28.398Z,5.43
2022-08-09T23:44:01.589Z,5.47
2022-08-09T23:46:29.875Z,4.93
2022-08-09T23:48:58.245Z,5.38
2022-08-09T23:51:26.262Z,5.00
2022-08-09T23:53:55.388Z,4.85
2022-08-09T23:56:53.520Z,5.53
2022-08-09T23:59:17.137Z,5.35
